METAR Data
IDs: Format: Raw Decoded Include TAF

Data at: 2121 UTC 06 Dec 2019

KTAN 062052Z AUTO 12004KT 10SM OVC055 03/M02 A2994 RMK AO2 SLP138 T00281022 56031
KTAN 061952Z AUTO 21005KT 10SM OVC044 04/M03 A2997 RMK AO2 SLP148 T00391033
KTAN 061852Z AUTO VRB03KT 10SM BKN060 OVC085 03/M04 A2999 RMK AO2 SLP154 T00331044 $
KTAN 061752Z AUTO 23004KT OVC065 03/M06 A3003 RMK AO2 SLP169 T00281061 10028 21017 56026 $
KTAN 061652Z AUTO 23006KT 10SM OVC070 02/M07 A3005 RMK AO2 SLP176 T00221067
KTAN 061552Z AUTO 22007KT 10SM BKN080 OVC090 02/M07 A3008 RMK AO2 SLP185 T00171067
KTAN 061452Z AUTO 23006KT 10SM BKN075 01/M07 A3011 RMK AO2 SLP195 T00111067 50005
KTAN 061352Z AUTO 23007KT 10SM CLR 01/M07 A3011 RMK AO2 SLP196 T00061067
KTAN 061252Z AUTO 23006KT 10SM CLR M01/M08 A3010 RMK AO2 SLP194 T10061078
KTAN 061152Z AUTO 22003KT 10SM CLR M02/M08 A3009 RMK AO2 SLP190 T10171083 11006 21022 51010
KTAN 061052Z AUTO 24004KT 10SM CLR M02/M09 A3008 RMK AO2 SLP187 T10221089
KTAN 060952Z AUTO 24005KT 10SM CLR M02/M09 A3007 RMK AO2 SLP184 T10171094
KTAN 060852Z AUTO 26005KT 10SM CLR M02/M09 A3006 RMK AO2 SLP180 T10171094 51023
KTAN 060752Z AUTO 27003KT 10SM CLR M02/M09 A3005 RMK AO2 SLP175 T10171094
KTAN 060652Z AUTO 27005KT 10SM CLR M01/M09 A3003 RMK AO2 SLP168 T10111094
KTAN 060552Z AUTO 28004KT 10SM CLR M01/M09 A2999 RMK AO2 SLP157 T10061094 10028 21006 51029
KTAN 060452Z AUTO 28007KT 10SM SCT045 00/M09 A2996 RMK AO2 SLP146 T00001094 400721044
KTAN 060352Z AUTO 28006KT 10SM CLR 01/M09 A2994 RMK AO2 SLP138 T00061094
KTAN 060252Z AUTO 28008KT 10SM CLR 01/M09 A2991 RMK AO2 SLP128 T00061089 53026
KTAN 060152Z AUTO 28009KT 10SM CLR 01/M09 A2987 RMK AO2 SLP114 T00111089
KTAN 060052Z AUTO 29009KT 10SM FEW065 02/M09 A2985 RMK AO2 SLP108 T00221094
KTAN 052352Z AUTO 28009G21KT 10SM SCT075 03/M09 A2983 RMK AO2 SLP101 T00281094 10072 20028 51041
KTAN 052252Z AUTO 28005KT 10SM BKN070 04/M07 A2980 RMK AO2 SLP092 T00391067
KTAN 052152Z AUTO 29007G18KT 10SM OVC060 04/M06 A2975 RMK AO2 SLP075 T00441061
KTAN 052052Z AUTO 29007KT 260V320 10SM OVC055 06/M06 A2971 RMK AO2 SLP060 T00561056 53034
KTAN 051952Z AUTO 29010G18KT 10SM OVC050 06/M05 A2966 RMK AO2 SLP045 T00561050
KTAN 051852Z AUTO 29008G18KT 10SM BKN049 07/M05 A2964 RMK AO2 SLP037 T00671050
KTAN 051752Z AUTO 29010G20KT 10SM CLR 07/M04 A2961 RMK AO2 SLP026 I6000 T00671044 10067 21044 56001
KTAN 051652Z AUTO 28009G18KT 10SM CLR 06/M03 A2961 RMK AO2 SLP026 T00611028
KTAN 051552Z AUTO 28010G14KT 10SM CLR 06/M03 A2961 RMK AO2 SLP026 T00611028
KTAN 051452Z AUTO 28006KT 10SM CLR 04/M02 A2961 RMK AO2 SLP026 I3000 T00441017 51017
KTAN 051352Z AUTO 25005KT 10SM FEW075 02/M02 A2959 RMK AO2 SLP020 I1000 T00171017
KTAN 051252Z AUTO VRB03KT 6SM BR FEW070 M02/M04 A2958 RMK AO2 SLP016 T10171039
KTAN 051152Z AUTO 00000KT 6SM BR BKN070 M03/M05 A2956 RMK AO2 SLP009 I1000 I6001 T10331050 11011 21039 53019
KTAN 051052Z AUTO 00000KT 5SM BR CLR M03/M05 A2954 RMK AO2 SLP002 I1000 T10281050
KTAN 050952Z AUTO 00000KT 5SM BR FEW070 BKN100 M03/M04 A2951 RMK AO2 SLP993 I1000 T10281044